メインページ
METAR-TAF:

METAR-TAF

空港 :

ジュネーヴ空港

ジュネーヴ, スイス

緯度: 46-15N, 経度: 006-08E, 海抜: 420m

現時点の気象観測

当レポートは15分前の07:50(UTC)に作成
の風 5kt、北東から東/南東の間で変化する
気温 4°C
湿度 75%
気圧 1024 hPa
視程10km以上
高度3000ftの雲はほとんどない

METAR: LSGG 190750Z 08005KT 050V120 9999 FEW030 04/00 Q1024 NOSIG

時間: 09:05 (08:05 UTC)

予報

当レポートは2時間40分前の05:25(UTC)に作成
予報は19日の 06時(UTC)から 20日の 12時(UTC)まで有効
変向風 3kt
視程10km以上
1,500メートル以下は雲なし、積乱雲なし
19日の 08時(UTC)から 19日の 10時(UTC)まで徐々に
北東の風 14kt
視程10km以上
高度4000ftの雲はほとんどない
19日の 18時(UTC)から 19日の 21時(UTC)まで徐々に
北東の風 15kt、最大30ktの突風を伴う
視程10km以上
1,500メートル以下は雲なし、積乱雲なし

TAF: LSGG 190525Z 1906/2012 VRB03KT CAVOK TX10/1915Z TNM01/1906Z TN02/2006Z BECMG 1908/1910 05014KT 9999 FEW040 BECMG 1918/1921 05015G30KT CAVOK

4,000以上の空港の気象観測と天気予報(METAR報とTAF報)

利用可能な観測所は地図上に黄色い丸と赤い丸で示す。

丸の上にカーソルを重ねると観測所名を参照できる。

次にクリックすると気象観測と天気予報を参照できる。

マップの切り替え:黒色「×」印の緑ボタンをクリックして拡大、「-」印の緑ボタンをクリックして縮小、緑色の三角印をクリックして隣りの地図に切り替え


METAR-TAF: